Time;durP1;ratioP1;P1;durP2;ratioP2;P2;SDS_P1;SDS_P2;PMS_P1;PMS_P2;Temp;Humidity;BMP_temperature;BMP_pressure;BME280_temperature;BME280_humidity;BME280_pressure;Samples;Min_cycle;Max_cycle;Signal;HPM_P1;HPM_P2
2021/05/07 04:58:52;;;;;;;;;;;;;;;7.74;80.58;97099.29;1751659;78;20242;-68
2021/05/07 05:01:20;;;;;;;;;;;;;;;7.92;79.85;97119.94;1729240;81;21881;-68
2021/05/07 05:03:51;;;;;;;;;;;;;;;8.05;79.40;97103.08;1759831;80;20708;-69
2021/05/07 05:06:19;;;;;;;;;;;;;;;8.15;79.54;97097.43;1736871;81;20312;-68
2021/05/07 05:08:47;;;;;;;;;;;;;;;8.24;78.52;97086.81;1757129;79;20568;-67
2021/05/07 05:11:15;;;;;;;;;;;;;;;8.34;77.88;97080.92;1738544;80;20613;-65
2021/05/07 05:13:43;;;;;;;;;;;;;;;8.42;76.62;97093.58;1742589;80;21715;-66
2021/05/07 05:16:11;;;;;;;;;;;;;;;8.48;76.14;97087.36;1734499;81;20408;-66
2021/05/07 05:18:40;;;;;;;;;;;;;;;8.51;76.02;97065.89;1739722;80;20416;-67
2021/05/07 05:21:09;;;;;;;;;;;;;;;8.58;76.10;97040.81;1739605;80;20490;-67
2021/05/07 05:23:41;;;;;;;;;;;;;;;8.69;75.71;97068.69;1725527;81;20747;-66
2021/05/07 05:26:09;;;;;;;;;;;;;;;8.81;75.43;97047.03;1739098;81;21883;-72
2021/05/07 05:28:37;;;;;;;;;;;;;;;8.90;75.19;97043.44;1713864;81;20464;-65
2021/05/07 05:31:06;;;;;;;;;;;;;;;9.00;75.87;97016.77;1722141;81;20645;-68
2021/05/07 05:33:34;;;;;;;;;;;;;;;9.14;75.71;97026.84;1721903;81;20768;-67
2021/05/07 05:36:03;;;;;;;;;;;;;;;9.22;75.51;97014.02;1725205;81;21081;-68
2021/05/07 05:38:31;;;;;;;;;;;;;;;9.30;75.69;97031.11;1726193;81;20907;-68
2021/05/07 05:40:59;;;;;;;;;;;;;;;9.38;74.77;97041.91;1724459;81;20489;-66
2021/05/07 05:43:27;;;;;;;;;;;;;;;9.42;73.20;97040.11;1726135;81;20768;-68
2021/05/07 05:45:55;;;;;;;;;;;;;;;9.39;71.93;97025.66;1724591;81;20527;-68
2021/05/07 05:48:23;;;;;;;;;;;;;;;9.36;72.09;97033.50;1725118;82;20795;-75
2021/05/07 05:50:52;;;;;;;;;;;;;;;9.35;72.06;97028.53;1724093;81;21892;-70
2021/05/07 05:53:20;;;;;;;;;;;;;;;9.40;72.20;97024.62;1728605;81;21550;-65
2021/05/07 05:55:48;;;;;;;;;;;;;;;9.46;71.67;97031.47;1726005;81;20590;-62
2021/05/07 05:58:16;;;;;;;;;;;;;;;9.52;71.19;97037.00;1730091;81;20408;-69
2021/05/07 06:00:44;;;;;;;;;;;;;;;9.57;69.27;97031.80;1761016;79;20632;-67
2021/05/07 06:03:12;;;;;;;;;;;;;;;9.65;68.84;97033.15;1774378;79;20840;-70
2021/05/07 06:05:40;;;;;;;;;;;;;;;9.69;68.68;97033.68;1770584;79;20481;-70
2021/05/07 06:08:08;;;;;;;;;;;;;;;9.74;69.68;97032.38;1760671;79;21164;-77
2021/05/07 06:10:37;;;;;;;;;;;;;;;9.79;69.94;97024.55;1758476;79;20395;-70
2021/05/07 06:13:06;;;;;;;;;;;;;;;9.88;69.99;97022.72;1759859;79;20566;-71
2021/05/07 06:15:34;;;;;;;;;;;;;;;9.99;70.29;97019.88;1758875;79;21883;-68
2021/05/07 06:18:02;;;;;;;;;;;;;;;10.15;69.67;97015.47;1759539;79;20407;-67
2021/05/07 06:20:30;;;;;;;;;;;;;;;10.29;69.78;97013.16;1759598;79;20515;-70
2021/05/07 06:22:59;;;;;;;;;;;;;;;10.45;69.03;97010.27;1757772;79;20791;-70
2021/05/07 06:25:27;;;;;;;;;;;;;;;10.62;68.56;97007.92;1756475;79;21158;-68
2021/05/07 06:27:55;;;;;;;;;;;;;;;10.84;67.78;97001.34;1758058;79;21849;-70
2021/05/07 06:30:23;;;;;;;;;;;;;;;11.06;67.72;97001.59;1760415;79;20609;-74
2021/05/07 06:32:51;;;;;;;;;;;;;;;11.25;66.51;96999.44;1746923;79;20597;-73
2021/05/07 06:35:20;;;;;;;;;;;;;;;11.48;65.35;96991.48;1738321;81;20341;-77
2021/05/07 06:37:47;;;;;;;;;;;;;;;11.65;63.72;96991.95;1756253;79;20655;-75
2021/05/07 06:40:15;;;;;;;;;;;;;;;11.84;63.67;96987.41;1755833;79;21487;-67
2021/05/07 06:42:46;;;;;;;;;;;;;;;12.02;63.86;96982.33;1753835;79;20505;-71
2021/05/07 06:45:14;;;;;;;;;;;;;;;12.21;63.68;96984.31;1752317;79;20123;-68
2021/05/07 06:47:42;;;;;;;;;;;;;;;12.37;63.25;96977.36;1758726;79;20495;-67
2021/05/07 06:50:11;;;;;;;;;;;;;;;12.49;63.03;96978.31;1757640;79;20614;-67
2021/05/07 06:52:39;;;;;;;;;;;;;;;12.56;62.29;96975.36;1756650;79;21992;-69
2021/05/07 06:55:08;;;;;;;;;;;;;;;12.61;61.78;96979.27;1760663;79;20506;-73
2021/05/07 06:57:37;;;;;;;;;;;;;;;12.69;61.05;96971.56;1764914;79;20481;-69
2021/05/07 07:00:10;;;;;;;;;;;;;;;12.73;60.89;96981.03;1769490;79;20566;-67
2021/05/07 07:02:39;;;;;;;;;;;;;;;12.78;60.18;96975.70;1776567;79;20570;-69
2021/05/07 07:05:27;;;;;;;;;;;;;;;12.83;59.53;96976.97;1764307;79;21925;-68
2021/05/07 07:07:56;;;;;;;;;;;;;;;12.94;60.22;96969.77;1677848;83;20299;-69
2021/05/07 07:10:23;;;;;;;;;;;;;;;13.10;60.78;96965.92;1670898;83;20500;-63
2021/05/07 07:12:52;;;;;;;;;;;;;;;13.22;60.47;96980.86;1679625;82;20225;-66
2021/05/07 07:15:20;;;;;;;;;;;;;;;13.38;61.01;96965.66;1702261;81;20624;-70
2021/05/07 07:17:50;;;;;;;;;;;;;;;13.59;61.60;96945.86;1703697;81;20781;-63
2021/05/07 07:20:18;;;;;;;;;;;;;;;13.85;61.40;96941.81;1685091;82;20661;-72
2021/05/07 07:22:47;;;;;;;;;;;;;;;14.12;59.31;96933.23;1679205;83;20274;-68
2021/05/07 07:25:14;;;;;;;;;;;;;;;14.38;59.16;96929.19;1674793;83;20323;-67
2021/05/07 07:27:42;;;;;;;;;;;;;;;14.69;58.74;96937.95;1732435;79;20620;-67
2021/05/07 07:30:11;;;;;;;;;;;;;;;14.98;58.12;96925.80;1738071;80;20776;-67
2021/05/07 07:32:39;;;;;;;;;;;;;;;15.20;58.60;96914.76;1710670;81;20552;-71
2021/05/07 07:35:09;;;;;;;;;;;;;;;15.39;56.63;96910.70;1744805;80;20606;-68
2021/05/07 07:37:37;;;;;;;;;;;;;;;15.53;55.97;96908.06;1739787;80;20638;-65
2021/05/07 07:40:06;;;;;;;;;;;;;;;15.69;56.22;96914.62;1731904;81;20636;-64
2021/05/07 07:42:34;;;;;;;;;;;;;;;15.86;55.83;96911.33;1734521;81;21801;-66
2021/05/07 07:45:03;;;;;;;;;;;;;;;16.01;54.61;96908.34;1738573;80;20559;-64
2021/05/07 07:47:31;;;;;;;;;;;;;;;16.12;54.15;96911.02;1726652;81;20406;-64
2021/05/07 07:49:59;;;;;;;;;;;;;;;16.18;52.17;96882.52;1754225;79;20530;-67
2021/05/07 07:52:27;;;;;;;;;;;;;;;16.22;52.50;96902.02;1764862;80;20699;-67
2021/05/07 07:54:55;;;;;;;;;;;;;;;16.33;52.44;96917.41;1747442;80;22053;-67
2021/05/07 07:57:25;;;;;;;;;;;;;;;16.45;51.77;96900.94;1742778;80;20591;-67
2021/05/07 07:59:53;;;;;;;;;;;;;;;16.57;51.25;96908.36;1741736;80;20489;-68
2021/05/07 08:02:22;;;;;;;;;;;;;;;16.69;51.27;96912.59;1739949;80;20535;-64
2021/05/07 08:04:50;;;;;;;;;;;;;;;16.85;50.31;96915.64;1747769;81;20589;-66
2021/05/07 08:07:18;;;;;;;;;;;;;;;16.98;49.29;96910.78;1738753;80;21885;-67
2021/05/07 08:09:47;;;;;;;;;;;;;;;17.04;49.02;96916.19;1733253;81;20441;-66
2021/05/07 08:12:15;;;;;;;;;;;;;;;17.01;48.74;96910.16;1739074;80;20531;-67
2021/05/07 08:14:43;;;;;;;;;;;;;;;16.94;48.93;96908.48;1724837;81;20502;-66
2021/05/07 08:17:12;;;;;;;;;;;;;;;16.90;49.20;96907.00;1752150;80;20637;-66
2021/05/07 08:19:41;;;;;;;;;;;;;;;16.90;49.05;96914.96;1723965;80;21931;-63
2021/05/07 08:22:10;;;;;;;;;;;;;;;16.87;49.11;96908.92;1734820;81;20475;-66
2021/05/07 08:24:38;;;;;;;;;;;;;;;16.89;48.87;96898.79;1734274;80;20290;-66
2021/05/07 08:27:07;;;;;;;;;;;;;;;17.00;49.61;96897.99;1736738;81;20311;-65
2021/05/07 08:29:36;;;;;;;;;;;;;;;17.06;49.58;96898.87;1728488;81;20612;-66
2021/05/07 08:32:04;;;;;;;;;;;;;;;17.07;49.44;96895.67;1732842;80;21926;-67
2021/05/07 08:34:33;;;;;;;;;;;;;;;16.98;49.58;96885.02;1734699;80;20571;-63
2021/05/07 08:37:01;;;;;;;;;;;;;;;16.89;49.81;96874.13;1733305;81;20454;-67
2021/05/07 08:39:31;;;;;;;;;;;;;;;16.82;49.88;96881.73;1741205;80;20557;-68
2021/05/07 08:41:59;;;;;;;;;;;;;;;16.76;50.21;96889.06;1728725;81;20554;-64
2021/05/07 08:44:27;;;;;;;;;;;;;;;16.72;50.33;96890.20;1737002;81;22011;-64
2021/05/07 08:46:56;;;;;;;;;;;;;;;16.71;50.56;96885.22;1728608;81;20283;-73
2021/05/07 08:49:24;;;;;;;;;;;;;;;16.76;50.41;96891.71;1738851;80;20633;-66
2021/05/07 08:51:52;;;;;;;;;;;;;;;16.86;50.44;96882.14;1727687;81;20534;-67
2021/05/07 08:54:22;;;;;;;;;;;;;;;17.04;50.79;96895.73;1725269;80;20577;-66
2021/05/07 08:56:50;;;;;;;;;;;;;;;17.27;51.10;96889.02;1734151;81;22073;-63
2021/05/07 08:59:20;;;;;;;;;;;;;;;17.44;49.41;96894.36;1736865;81;21672;-66
2021/05/07 09:01:50;;;;;;;;;;;;;;;17.57;49.24;96892.14;1733338;80;20391;-63
2021/05/07 09:04:20;;;;;;;;;;;;;;;17.71;49.12;96882.19;1734425;80;20593;-66
2021/05/07 09:06:57;;;;;;;;;;;;;;;17.81;49.84;96884.52;1730756;81;20490;-62
2021/05/07 09:09:29;;;;;;;;;;;;;;;17.89;49.38;96886.41;1716309;81;22108;-66
2021/05/07 09:12:02;;;;;;;;;;;;;;;17.98;47.85;96888.30;1717797;81;20190;-66
2021/05/07 09:14:30;;;;;;;;;;;;;;;17.96;47.74;96883.28;1731474;81;20581;-64
2021/05/07 09:17:02;;;;;;;;;;;;;;;17.94;48.09;96870.84;1718962;82;20538;-65
2021/05/07 09:19:31;;;;;;;;;;;;;;;17.94;48.72;96873.50;1725715;81;20675;-64
2021/05/07 09:22:00;;;;;;;;;;;;;;;17.98;48.12;96850.52;1725224;81;22073;-65
2021/05/07 09:24:36;;;;;;;;;;;;;;;17.97;47.97;96856.15;1719640;81;20559;-67
2021/05/07 09:27:18;;;;;;;;;;;;;;;17.93;47.98;96861.33;1720119;81;20493;-65
2021/05/07 09:29:47;;;;;;;;;;;;;;;17.96;48.54;96856.70;1713160;81;20596;-65
2021/05/07 09:32:14;;;;;;;;;;;;;;;18.03;48.26;96863.65;1766471;79;20658;-65
2021/05/07 09:34:44;;;;;;;;;;;;;;;18.07;48.07;96866.48;1771094;78;22068;-62
2021/05/07 09:37:17;;;;;;;;;;;;;;;18.12;48.91;96865.77;1777827;79;20503;-65
2021/05/07 09:39:47;;;;;;;;;;;;;;;18.26;48.59;96872.23;1752928;79;20517;-63
2021/05/07 09:42:22;;;;;;;;;;;;;;;18.38;48.32;96867.59;1763474;79;20477;-61
2021/05/07 09:44:50;;;;;;;;;;;;;;;18.46;47.48;96876.11;1754059;79;20589;-65
2021/05/07 09:47:18;;;;;;;;;;;;;;;18.48;47.09;96873.38;1761145;79;20931;-62
2021/05/07 09:49:47;;;;;;;;;;;;;;;18.53;47.77;96869.20;1758484;79;20479;-64
2021/05/07 09:52:16;;;;;;;;;;;;;;;18.62;47.26;96871.88;1771337;79;20629;-65
2021/05/07 09:54:55;;;;;;;;;;;;;;;18.73;47.22;96875.00;1741522;79;20477;-64
2021/05/07 09:57:20;;;;;;;;;;;;;;;18.79;46.90;96879.05;1757321;79;20806;-64
2021/05/07 09:59:49;;;;;;;;;;;;;;;18.81;46.54;96886.92;1760979;79;21888;-63
2021/05/07 10:02:17;;;;;;;;;;;;;;;18.82;46.43;96883.71;1766331;78;20479;-64
2021/05/07 10:04:52;;;;;;;;;;;;;;;18.83;46.87;96878.08;1756586;79;20490;-64
2021/05/07 10:07:27;;;;;;;;;;;;;;;18.84;46.57;96874.87;1762690;79;20485;-65
2021/05/07 10:10:06;;;;;;;;;;;;;;;18.82;46.10;96872.52;1764421;78;20602;-64
2021/05/07 10:12:36;;;;;;;;;;;;;;;18.76;46.24;96872.47;1771454;78;21887;-65
2021/05/07 10:15:05;;;;;;;;;;;;;;;18.75;46.02;96887.42;1770373;79;20598;-63
2021/05/07 10:17:34;;;;;;;;;;;;;;;18.66;46.15;96874.91;1754821;79;20571;-64
2021/05/07 10:20:03;;;;;;;;;;;;;;;18.55;46.25;96875.55;1757222;79;20483;-61
2021/05/07 10:22:38;;;;;;;;;;;;;;;18.41;46.96;96884.27;1771072;79;20744;-64
2021/05/07 10:25:15;;;;;;;;;;;;;;;18.26;46.45;96886.32;1773559;79;22434;-63
2021/05/07 10:27:45;;;;;;;;;;;;;;;18.07;47.01;96885.88;1762150;79;20581;-64
2021/05/07 10:30:24;;;;;;;;;;;;;;;17.93;47.97;96892.69;1786803;78;20557;-63
2021/05/07 10:32:57;;;;;;;;;;;;;;;17.79;48.35;96896.00;1796072;78;20265;-66
2021/05/07 10:35:29;;;;;;;;;;;;;;;17.61;48.30;96902.92;1787584;79;20659;-64
2021/05/07 10:38:10;;;;;;;;;;;;;;;17.42;48.93;96903.98;1772053;79;22144;-68
2021/05/07 10:40:38;;;;;;;;;;;;;;;17.28;49.15;96905.98;1782024;79;20529;-65
2021/05/07 10:43:06;;;;;;;;;;;;;;;17.10;49.83;96906.99;1795901;79;20544;-65
2021/05/07 10:45:45;;;;;;;;;;;;;;;16.93;50.21;96920.21;1790825;78;20500;-68
2021/05/07 10:48:24;;;;;;;;;;;;;;;16.75;50.46;96914.81;1788722;78;20491;-67
2021/05/07 10:50:55;;;;;;;;;;;;;;;16.60;50.74;96927.13;1789366;78;21823;-65
2021/05/07 10:53:34;;;;;;;;;;;;;;;16.44;50.71;96909.98;1786764;78;20393;-66
2021/05/07 10:56:19;;;;;;;;;;;;;;;16.30;51.40;96918.53;1790862;78;20729;-72
2021/05/07 10:58:47;;;;;;;;;;;;;;;16.21;51.45;96919.04;1788597;78;20645;-63
2021/05/07 11:01:26;;;;;;;;;;;;;;;16.17;52.04;96924.69;1788098;78;20912;-69
2021/05/07 11:04:13;;;;;;;;;;;;;;;16.16;52.18;96925.77;1791333;78;22023;-68
2021/05/07 11:07:03;;;;;;;;;;;;;;;16.13;52.81;96925.84;1786718;78;20462;-66
2021/05/07 11:09:31;;;;;;;;;;;;;;;16.11;52.75;96921.37;1693562;83;20426;-68
2021/05/07 11:12:04;;;;;;;;;;;;;;;16.11;52.59;96933.84;1688890;83;20595;-72
2021/05/07 11:14:35;;;;;;;;;;;;;;;16.05;51.86;96931.85;1697721;84;20485;-65
2021/05/07 11:17:04;;;;;;;;;;;;;;;15.95;52.84;96926.23;1695704;82;22043;-66
2021/05/07 11:19:33;;;;;;;;;;;;;;;15.88;53.36;96925.85;1694054;83;20612;-66
2021/05/07 11:22:07;;;;;;;;;;;;;;;15.81;53.74;96941.91;1696605;82;20651;-67
2021/05/07 11:24:37;;;;;;;;;;;;;;;15.73;54.59;96941.28;1699674;82;20761;-68
2021/05/07 11:27:26;;;;;;;;;;;;;;;15.62;55.24;96946.02;1699809;82;20616;-63
2021/05/07 11:30:01;;;;;;;;;;;;;;;15.52;55.46;96940.35;1694945;82;22052;-65
2021/05/07 11:32:29;;;;;;;;;;;;;;;15.46;55.25;96943.40;1690015;82;20678;-70
2021/05/07 11:35:01;;;;;;;;;;;;;;;15.41;54.99;96942.97;1726675;81;20633;-68
2021/05/07 11:37:33;;;;;;;;;;;;;;;15.39;55.00;96953.06;1726754;80;20557;-67
2021/05/07 11:40:04;;;;;;;;;;;;;;;15.39;55.09;96945.66;1727644;81;20613;-66
2021/05/07 11:42:38;;;;;;;;;;;;;;;15.38;55.30;96951.49;1727924;80;21778;-63
2021/05/07 11:45:30;;;;;;;;;;;;;;;15.40;55.37;96941.94;1730186;81;20513;-66
2021/05/07 11:48:06;;;;;;;;;;;;;;;15.40;55.52;96943.26;1631091;85;20228;-64
2021/05/07 11:50:35;;;;;;;;;;;;;;;15.37;55.38;96935.89;1659511;83;20659;-65
2021/05/07 11:53:03;;;;;;;;;;;;;;;15.36;55.52;96939.08;1641901;85;20641;-64
2021/05/07 11:55:35;;;;;;;;;;;;;;;15.33;55.72;96940.22;1658198;85;20774;-65
2021/05/07 11:58:05;;;;;;;;;;;;;;;15.36;56.00;96944.37;1667929;84;20290;-66
2021/05/07 12:00:35;;;;;;;;;;;;;;;15.38;56.10;96949.38;1663987;84;20512;-63
2021/05/07 12:03:05;;;;;;;;;;;;;;;15.40;56.50;96962.58;1656536;84;20630;-67
2021/05/07 12:05:36;;;;;;;;;;;;;;;15.44;55.82;96964.09;1655642;85;20753;-66
2021/05/07 12:08:05;;;;;;;;;;;;;;;15.47;55.63;96963.51;1649563;84;21797;-66
2021/05/07 12:10:35;;;;;;;;;;;;;;;15.45;55.85;96966.98;1662731;84;20492;-72
2021/05/07 12:13:04;;;;;;;;;;;;;;;15.42;56.22;96964.91;1673568;83;20408;-67
2021/05/07 12:15:48;;;;;;;;;;;;;;;15.39;56.54;96974.78;1676772;83;20353;-66
2021/05/07 12:18:20;;;;;;;;;;;;;;;15.39;56.91;96979.55;1666043;84;20582;-63
2021/05/07 12:20:49;;;;;;;;;;;;;;;15.40;56.45;96976.36;1655460;84;21930;-65
2021/05/07 12:23:17;;;;;;;;;;;;;;;15.38;56.58;96979.83;1648753;85;20284;-65
2021/05/07 12:25:46;;;;;;;;;;;;;;;15.40;56.92;96978.47;1649701;85;20485;-63
2021/05/07 12:28:18;;;;;;;;;;;;;;;15.44;56.92;96975.47;1646292;85;20611;-68
2021/05/07 12:30:46;;;;;;;;;;;;;;;15.52;56.59;96975.32;1643786;84;20821;-69
2021/05/07 12:33:22;;;;;;;;;;;;;;;15.54;56.42;96970.02;1658102;84;22111;-68
2021/05/07 12:35:57;;;;;;;;;;;;;;;15.55;56.67;96964.18;1656576;84;20494;-67
2021/05/07 12:38:30;;;;;;;;;;;;;;;15.58;57.10;96968.87;1660246;84;20481;-70
2021/05/07 12:41:07;;;;;;;;;;;;;;;15.62;57.79;96969.86;1653713;84;20489;-67
2021/05/07 12:43:38;;;;;;;;;;;;;;;15.68;57.78;96964.70;1657962;84;20590;-70
2021/05/07 12:46:07;;;;;;;;;;;;;;;15.73;58.19;96972.53;1657616;84;21912;-69
2021/05/07 12:48:37;;;;;;;;;;;;;;;15.76;57.93;96970.62;1636749;85;20608;-69
2021/05/07 12:51:07;;;;;;;;;;;;;;;15.77;57.92;96969.55;1660172;85;20517;-65
2021/05/07 12:53:38;;;;;;;;;;;;;;;15.76;58.37;96965.88;1664108;85;20593;-65
